sensor_id;sensor_type;location;lat;lon;timestamp;pressure;altitude;pressure_sealevel;temperature;humidity
6413;BME280;3239;48.714;9.472;2023-05-14T00:01:45;98900.16;;;11.37;100.00
6413;BME280;3239;48.714;9.472;2023-05-14T00:04:11;98900.91;;;11.37;100.00
6413;BME280;3239;48.714;9.472;2023-05-14T00:06:36;98889.69;;;11.35;100.00
6413;BME280;3239;48.714;9.472;2023-05-14T00:09:02;98874.22;;;11.38;100.00
6413;BME280;3239;48.714;9.472;2023-05-14T00:11:29;98884.22;;;11.35;100.00
6413;BME280;3239;48.714;9.472;2023-05-14T00:13:55;98884.72;;;11.34;100.00
6413;BME280;3239;48.714;9.472;2023-05-14T00:16:20;98875.47;;;11.37;100.00
6413;BME280;3239;48.714;9.472;2023-05-14T00:18:46;98872.72;;;11.37;100.00
6413;BME280;3239;48.714;9.472;2023-05-14T00:21:12;98874.00;;;11.36;100.00
6413;BME280;3239;48.714;9.472;2023-05-14T00:23:38;98866.56;;;11.31;100.00
6413;BME280;3239;48.714;9.472;2023-05-14T00:26:04;98859.91;;;11.21;100.00
6413;BME280;3239;48.714;9.472;2023-05-14T00:28:30;98859.41;;;11.22;100.00
6413;BME280;3239;48.714;9.472;2023-05-14T00:30:55;98851.38;;;11.24;100.00
6413;BME280;3239;48.714;9.472;2023-05-14T00:33:21;98853.34;;;11.29;100.00
6413;BME280;3239;48.714;9.472;2023-05-14T00:35:47;98852.38;;;11.27;100.00
6413;BME280;3239;48.714;9.472;2023-05-14T00:38:14;98845.41;;;11.26;100.00
6413;BME280;3239;48.714;9.472;2023-05-14T00:40:44;98849.63;;;11.27;100.00
6413;BME280;3239;48.714;9.472;2023-05-14T00:43:19;98841.19;;;11.19;100.00
6413;BME280;3239;48.714;9.472;2023-05-14T00:45:45;98844.94;;;11.22;100.00
6413;BME280;3239;48.714;9.472;2023-05-14T00:48:12;98846.41;;;11.23;100.00
6413;BME280;3239;48.714;9.472;2023-05-14T00:50:38;98843.44;;;11.21;100.00
6413;BME280;3239;48.714;9.472;2023-05-14T00:53:04;98846.41;;;11.23;100.00
6413;BME280;3239;48.714;9.472;2023-05-14T00:55:38;98844.41;;;11.23;100.00
6413;BME280;3239;48.714;9.472;2023-05-14T00:58:12;98837.97;;;11.21;100.00
6413;BME280;3239;48.714;9.472;2023-05-14T01:00:39;98834.00;;;11.16;100.00
6413;BME280;3239;48.714;9.472;2023-05-14T01:03:07;98832.50;;;11.15;100.00
6413;BME280;3239;48.714;9.472;2023-05-14T01:11:46;98821.41;;;11.02;100.00
6413;BME280;3239;48.714;9.472;2023-05-14T01:14:44;98818.94;;;10.99;100.00
6413;BME280;3239;48.714;9.472;2023-05-14T01:17:11;98821.44;;;10.97;100.00
6413;BME280;3239;48.714;9.472;2023-05-14T01:19:43;98830.19;;;10.95;100.00
6413;BME280;3239;48.714;9.472;2023-05-14T01:22:10;98824.47;;;10.93;100.00
6413;BME280;3239;48.714;9.472;2023-05-14T01:24:36;98824.53;;;10.88;100.00
6413;BME280;3239;48.714;9.472;2023-05-14T01:27:34;98826.50;;;10.87;100.00
6413;BME280;3239;48.714;9.472;2023-05-14T01:30:17;98825.25;;;10.88;100.00
6413;BME280;3239;48.714;9.472;2023-05-14T01:32:50;98830.25;;;10.84;100.00
6413;BME280;3239;48.714;9.472;2023-05-14T01:35:17;98816.03;;;10.86;100.00
6413;BME280;3239;48.714;9.472;2023-05-14T01:37:44;98819.75;;;10.88;100.00
6413;BME280;3239;48.714;9.472;2023-05-14T01:40:12;98817.78;;;10.89;100.00
6413;BME280;3239;48.714;9.472;2023-05-14T01:42:38;98820.03;;;10.85;100.00
6413;BME280;3239;48.714;9.472;2023-05-14T01:45:05;98820.81;;;10.85;100.00
6413;BME280;3239;48.714;9.472;2023-05-14T01:47:32;98818.78;;;10.86;100.00
6413;BME280;3239;48.714;9.472;2023-05-14T01:49:57;98808.09;;;10.82;100.00
6413;BME280;3239;48.714;9.472;2023-05-14T01:52:23;98806.66;;;10.76;100.00
6413;BME280;3239;48.714;9.472;2023-05-14T01:54:49;98813.38;;;10.75;100.00
6413;BME280;3239;48.714;9.472;2023-05-14T01:57:15;98815.41;;;10.74;100.00
6413;BME280;3239;48.714;9.472;2023-05-14T01:59:40;98802.72;;;10.66;100.00
6413;BME280;3239;48.714;9.472;2023-05-14T02:02:06;98808.22;;;10.66;100.00
6413;BME280;3239;48.714;9.472;2023-05-14T02:04:32;98801.75;;;10.63;100.00
6413;BME280;3239;48.714;9.472;2023-05-14T02:06:58;98795.31;;;10.61;100.00
6413;BME280;3239;48.714;9.472;2023-05-14T02:09:23;98808.25;;;10.60;100.00
6413;BME280;3239;48.714;9.472;2023-05-14T02:11:49;98800.31;;;10.57;100.00
6413;BME280;3239;48.714;9.472;2023-05-14T02:14:15;98810.31;;;10.54;100.00
6413;BME280;3239;48.714;9.472;2023-05-14T02:16:40;98802.31;;;10.56;100.00
6413;BME280;3239;48.714;9.472;2023-05-14T02:19:06;98808.03;;;10.58;100.00
6413;BME280;3239;48.714;9.472;2023-05-14T02:21:32;98811.75;;;10.61;100.00
6413;BME280;3239;48.714;9.472;2023-05-14T02:23:58;98812.00;;;10.63;100.00
6413;BME280;3239;48.714;9.472;2023-05-14T02:26:23;98811.75;;;10.61;100.00
6413;BME280;3239;48.714;9.472;2023-05-14T02:28:49;98807.28;;;10.58;100.00
6413;BME280;3239;48.714;9.472;2023-05-14T02:31:15;98801.81;;;10.52;100.00
6413;BME280;3239;48.714;9.472;2023-05-14T02:33:43;98802.56;;;10.58;100.00
6413;BME280;3239;48.714;9.472;2023-05-14T02:36:09;98799.00;;;10.63;100.00
6413;BME280;3239;48.714;9.472;2023-05-14T02:38:35;98815.44;;;10.63;100.00
6413;BME280;3239;48.714;9.472;2023-05-14T02:41:00;98813.69;;;10.66;100.00
6413;BME280;3239;48.714;9.472;2023-05-14T02:43:26;98809.75;;;10.61;100.00
6413;BME280;3239;48.714;9.472;2023-05-14T02:45:52;98810.03;;;10.52;100.00
6413;BME280;3239;48.714;9.472;2023-05-14T02:48:18;98812.50;;;10.61;100.00
6413;BME280;3239;48.714;9.472;2023-05-14T02:50:43;98817.47;;;10.63;100.00
6413;BME280;3239;48.714;9.472;2023-05-14T02:53:09;98823.94;;;10.60;100.00
6413;BME280;3239;48.714;9.472;2023-05-14T02:55:35;98814.81;;;10.52;100.00
6413;BME280;3239;48.714;9.472;2023-05-14T02:58:01;98813.78;;;10.55;100.00
6413;BME280;3239;48.714;9.472;2023-05-14T03:00:27;98822.75;;;10.55;100.00
6413;BME280;3239;48.714;9.472;2023-05-14T03:02:52;98830.19;;;10.60;100.00
6413;BME280;3239;48.714;9.472;2023-05-14T03:05:18;98825.91;;;10.65;100.00
6413;BME280;3239;48.714;9.472;2023-05-14T03:07:44;98826.16;;;10.67;100.00
6413;BME280;3239;48.714;9.472;2023-05-14T03:10:10;98834.09;;;10.70;100.00
6413;BME280;3239;48.714;9.472;2023-05-14T03:12:36;98834.84;;;10.71;100.00
6413;BME280;3239;48.714;9.472;2023-05-14T03:15:02;98837.13;;;10.67;100.00
6413;BME280;3239;48.714;9.472;2023-05-14T03:17:28;98834.63;;;10.63;100.00
6413;BME280;3239;48.714;9.472;2023-05-14T03:19:54;98835.91;;;10.62;100.00
6413;BME280;3239;48.714;9.472;2023-05-14T03:22:19;98825.69;;;10.63;100.00
6413;BME280;3239;48.714;9.472;2023-05-14T03:24:45;98838.63;;;10.62;100.00
6413;BME280;3239;48.714;9.472;2023-05-14T03:27:11;98839.09;;;10.66;100.00
6413;BME280;3239;48.714;9.472;2023-05-14T03:29:37;98835.63;;;10.66;100.00
6413;BME280;3239;48.714;9.472;2023-05-14T03:32:02;98835.13;;;10.67;100.00
6413;BME280;3239;48.714;9.472;2023-05-14T03:34:28;98838.59;;;10.68;100.00
6413;BME280;3239;48.714;9.472;2023-05-14T03:36:54;98842.34;;;10.70;100.00
6413;BME280;3239;48.714;9.472;2023-05-14T03:39:20;98844.09;;;10.68;100.00
6413;BME280;3239;48.714;9.472;2023-05-14T03:41:46;98843.06;;;10.71;100.00
6413;BME280;3239;48.714;9.472;2023-05-14T03:44:12;98844.81;;;10.68;100.00
6413;BME280;3239;48.714;9.472;2023-05-14T03:46:38;98837.63;;;10.65;100.00
6413;BME280;3239;48.714;9.472;2023-05-14T03:49:05;98842.59;;;10.67;100.00
6413;BME280;3239;48.714;9.472;2023-05-14T03:51:31;98839.88;;;10.67;100.00
6413;BME280;3239;48.714;9.472;2023-05-14T03:53:57;98841.84;;;10.66;100.00
6413;BME280;3239;48.714;9.472;2023-05-14T03:56:24;98843.59;;;10.69;100.00
6413;BME280;3239;48.714;9.472;2023-05-14T03:58:51;98843.84;;;10.66;100.00
6413;BME280;3239;48.714;9.472;2023-05-14T04:01:16;98847.38;;;10.61;100.00
6413;BME280;3239;48.714;9.472;2023-05-14T04:03:42;98846.13;;;10.62;100.00
6413;BME280;3239;48.714;9.472;2023-05-14T04:06:08;98845.34;;;10.67;100.00
6413;BME280;3239;48.714;9.472;2023-05-14T04:08:34;98852.25;;;10.73;100.00
6413;BME280;3239;48.714;9.472;2023-05-14T04:11:00;98849.53;;;10.73;100.00
6413;BME280;3239;48.714;9.472;2023-05-14T04:13:25;98842.84;;;10.69;100.00
6413;BME280;3239;48.714;9.472;2023-05-14T04:15:51;98846.78;;;10.73;100.00
6413;BME280;3239;48.714;9.472;2023-05-14T04:18:17;98845.84;;;10.65;100.00
6413;BME280;3239;48.714;9.472;2023-05-14T04:20:43;98837.06;;;10.72;100.00
6413;BME280;3239;48.714;9.472;2023-05-14T04:23:09;98840.56;;;10.73;100.00
6413;BME280;3239;48.714;9.472;2023-05-14T04:25:35;98840.78;;;10.75;100.00
6413;BME280;3239;48.714;9.472;2023-05-14T04:28:02;98843.50;;;10.80;100.00
6413;BME280;3239;48.714;9.472;2023-05-14T04:30:27;98847.94;;;10.89;100.00
6413;BME280;3239;48.714;9.472;2023-05-14T04:32:54;98834.34;;;10.72;100.00
6413;BME280;3239;48.714;9.472;2023-05-14T04:35:20;98841.78;;;10.77;100.00
6413;BME280;3239;48.714;9.472;2023-05-14T04:37:46;98840.31;;;10.71;100.00
6413;BME280;3239;48.714;9.472;2023-05-14T04:40:12;98840.38;;;10.60;100.00
6413;BME280;3239;48.714;9.472;2023-05-14T04:42:38;98836.38;;;10.66;100.00
6413;BME280;3239;48.714;9.472;2023-05-14T04:45:05;98837.56;;;10.71;100.00
6413;BME280;3239;48.714;9.472;2023-05-14T04:47:31;98832.84;;;10.71;100.00
6413;BME280;3239;48.714;9.472;2023-05-14T04:49:57;98836.56;;;10.74;100.00
6413;BME280;3239;48.714;9.472;2023-05-14T04:52:24;98832.28;;;10.78;100.00
6413;BME280;3239;48.714;9.472;2023-05-14T04:54:50;98838.56;;;10.73;100.00
6413;BME280;3239;48.714;9.472;2023-05-14T04:57:16;98836.06;;;10.75;100.00
6413;BME280;3239;48.714;9.472;2023-05-14T04:59:42;98839.50;;;10.81;100.00
6413;BME280;3239;48.714;9.472;2023-05-14T05:02:07;98844.72;;;10.85;100.00
6413;BME280;3239;48.714;9.472;2023-05-14T05:04:33;98846.44;;;10.88;100.00
6413;BME280;3239;48.714;9.472;2023-05-14T05:06:59;98846.59;;;11.01;100.00
6413;BME280;3239;48.714;9.472;2023-05-14T05:09:24;98846.66;;;10.95;100.00
6413;BME280;3239;48.714;9.472;2023-05-14T05:11:50;98839.22;;;10.90;100.00
6413;BME280;3239;48.714;9.472;2023-05-14T05:14:16;98839.91;;;10.96;100.00
6413;BME280;3239;48.714;9.472;2023-05-14T05:16:42;98844.63;;;10.96;100.00
6413;BME280;3239;48.714;9.472;2023-05-14T05:19:08;98853.13;;;10.98;100.00
6413;BME280;3239;48.714;9.472;2023-05-14T05:21:34;98843.66;;;10.93;100.00
6413;BME280;3239;48.714;9.472;2023-05-14T05:24:00;98842.19;;;10.87;100.00
6413;BME280;3239;48.714;9.472;2023-05-14T05:26:26;98840.00;;;10.85;100.00
6413;BME280;3239;48.714;9.472;2023-05-14T05:28:52;98837.47;;;10.87;100.00
6413;BME280;3239;48.714;9.472;2023-05-14T05:31:18;98843.22;;;10.84;100.00
6413;BME280;3239;48.714;9.472;2023-05-14T05:33:44;98839.72;;;10.89;100.00
6413;BME280;3239;48.714;9.472;2023-05-14T05:36:10;98845.69;;;10.87;100.00
6413;BME280;3239;48.714;9.472;2023-05-14T05:38:35;98838.03;;;10.80;100.00
6413;BME280;3239;48.714;9.472;2023-05-14T05:41:01;98843.03;;;10.76;100.00
6413;BME280;3239;48.714;9.472;2023-05-14T05:43:27;98840.25;;;10.82;100.00
6413;BME280;3239;48.714;9.472;2023-05-14T05:45:53;98838.47;;;10.84;100.00
6413;BME280;3239;48.714;9.472;2023-05-14T05:48:19;98842.94;;;10.93;100.00
6413;BME280;3239;48.714;9.472;2023-05-14T05:50:48;98834.88;;;11.00;100.00
6413;BME280;3239;48.714;9.472;2023-05-14T05:53:14;98841.31;;;11.08;100.00
6413;BME280;3239;48.714;9.472;2023-05-14T05:55:43;98847.63;;;10.98;100.00
6413;BME280;3239;48.714;9.472;2023-05-14T05:58:09;98831.34;;;11.05;100.00
6413;BME280;3239;48.714;9.472;2023-05-14T06:00:34;98837.25;;;11.15;100.00
6413;BME280;3239;48.714;9.472;2023-05-14T06:03:00;98840.69;;;11.21;100.00
6413;BME280;3239;48.714;9.472;2023-05-14T06:05:26;98836.47;;;11.20;100.00
6413;BME280;3239;48.714;9.472;2023-05-14T06:07:52;98834.47;;;11.20;100.00
6413;BME280;3239;48.714;9.472;2023-05-14T06:10:18;98828.97;;;11.20;100.00
6413;BME280;3239;48.714;9.472;2023-05-14T06:12:44;98841.09;;;11.30;100.00
6413;BME280;3239;48.714;9.472;2023-05-14T06:15:11;98841.56;;;11.34;100.00
6413;BME280;3239;48.714;9.472;2023-05-14T06:17:37;98830.53;;;11.40;100.00
6413;BME280;3239;48.714;9.472;2023-05-14T06:20:04;98830.59;;;11.34;100.00
6413;BME280;3239;48.714;9.472;2023-05-14T06:22:30;98826.66;;;11.30;100.00
6413;BME280;3239;48.714;9.472;2023-05-14T06:24:56;98828.53;;;11.40;100.00
6413;BME280;3239;48.714;9.472;2023-05-14T06:27:22;98831.50;;;11.42;100.00
6413;BME280;3239;48.714;9.472;2023-05-14T06:29:47;98833.63;;;11.60;100.00
6413;BME280;3239;48.714;9.472;2023-05-14T06:32:14;98828.00;;;11.71;100.00
6413;BME280;3239;48.714;9.472;2023-05-14T06:34:41;98826.34;;;11.63;100.00
6413;BME280;3239;48.714;9.472;2023-05-14T06:37:08;98833.75;;;11.92;100.00
6413;BME280;3239;48.714;9.472;2023-05-14T06:39:35;98817.41;;;11.81;100.00
6413;BME280;3239;48.714;9.472;2023-05-14T06:42:01;98812.59;;;11.87;100.00
6413;BME280;3239;48.714;9.472;2023-05-14T06:44:27;98802.31;;;11.93;100.00
6413;BME280;3239;48.714;9.472;2023-05-14T06:46:53;98801.63;;;12.05;100.00
6413;BME280;3239;48.714;9.472;2023-05-14T06:49:19;98792.06;;;12.12;100.00
6413;BME280;3239;48.714;9.472;2023-05-14T06:51:45;98781.91;;;12.07;100.00
6413;BME280;3239;48.714;9.472;2023-05-14T06:54:11;98768.25;;;12.20;100.00
6413;BME280;3239;48.714;9.472;2023-05-14T06:56:37;98755.25;;;12.20;100.00
6413;BME280;3239;48.714;9.472;2023-05-14T06:59:03;98758.34;;;12.48;100.00
6413;BME280;3239;48.714;9.472;2023-05-14T07:01:29;98751.63;;;12.62;100.00
6413;BME280;3239;48.714;9.472;2023-05-14T07:03:55;98738.19;;;12.59;100.00
6413;BME280;3239;48.714;9.472;2023-05-14T07:06:21;98725.72;;;12.58;100.00
6413;BME280;3239;48.714;9.472;2023-05-14T07:08:47;98717.84;;;12.80;100.00
6413;BME280;3239;48.714;9.472;2023-05-14T07:11:13;98702.72;;;12.74;100.00
6413;BME280;3239;48.714;9.472;2023-05-14T07:13:39;98684.31;;;12.82;100.00
6413;BME280;3239;48.714;9.472;2023-05-14T07:16:07;98678.09;;;12.81;100.00
6413;BME280;3239;48.714;9.472;2023-05-14T07:18:36;98658.69;;;12.61;100.00
6413;BME280;3239;48.714;9.472;2023-05-14T07:21:02;98642.19;;;12.61;100.00
6413;BME280;3239;48.714;9.472;2023-05-14T07:23:33;98628.06;;;12.83;100.00
6413;BME280;3239;48.714;9.472;2023-05-14T07:26:05;98619.28;;;12.84;100.00
6413;BME280;3239;48.714;9.472;2023-05-14T07:28:31;98597.91;;;12.77;100.00
6413;BME280;3239;48.714;9.472;2023-05-14T07:30:57;98590.94;;;12.76;100.00
6413;BME280;3239;48.714;9.472;2023-05-14T07:33:23;98577.59;;;12.67;100.00
6413;BME280;3239;48.714;9.472;2023-05-14T07:35:50;98561.44;;;12.51;100.00
6413;BME280;3239;48.714;9.472;2023-05-14T07:38:16;98563.53;;;12.58;100.00
6413;BME280;3239;48.714;9.472;2023-05-14T07:40:42;98578.66;;;12.77;100.00
6413;BME280;3239;48.714;9.472;2023-05-14T07:43:09;98573.38;;;12.92;100.00
6413;BME280;3239;48.714;9.472;2023-05-14T07:45:38;98570.22;;;13.14;100.00
6413;BME280;3239;48.714;9.472;2023-05-14T07:48:04;98565.75;;;13.11;100.00
6413;BME280;3239;48.714;9.472;2023-05-14T07:50:30;98554.44;;;12.89;100.00
6413;BME280;3239;48.714;9.472;2023-05-14T07:52:56;98554.44;;;13.02;100.00
6413;BME280;3239;48.714;9.472;2023-05-14T07:55:22;98549.03;;;13.22;100.00
6413;BME280;3239;48.714;9.472;2023-05-14T07:57:47;98539.09;;;13.53;100.00
6413;BME280;3239;48.714;9.472;2023-05-14T08:00:13;98520.78;;;13.55;100.00
6413;BME280;3239;48.714;9.472;2023-05-14T08:02:40;98508.84;;;13.94;100.00
6413;BME280;3239;48.714;9.472;2023-05-14T08:05:07;98491.97;;;13.77;100.00
6413;BME280;3239;48.714;9.472;2023-05-14T08:07:33;98475.91;;;13.88;100.00
6413;BME280;3239;48.714;9.472;2023-05-14T08:09:59;98469.94;;;13.97;100.00
6413;BME280;3239;48.714;9.472;2023-05-14T08:12:25;98450.94;;;13.86;100.00
6413;BME280;3239;48.714;9.472;2023-05-14T08:14:51;98441.22;;;14.13;100.00
6413;BME280;3239;48.714;9.472;2023-05-14T08:17:17;98423.19;;;14.83;100.00
6413;BME280;3239;48.714;9.472;2023-05-14T08:19:43;98389.88;;;15.39;100.00
6413;BME280;3239;48.714;9.472;2023-05-14T08:22:09;98367.97;;;15.41;100.00
6413;BME280;3239;48.714;9.472;2023-05-14T08:24:35;98338.69;;;15.31;100.00
6413;BME280;3239;48.714;9.472;2023-05-14T08:27:00;98313.44;;;15.04;100.00
6413;BME280;3239;48.714;9.472;2023-05-14T08:29:27;98295.25;;;14.94;100.00
6413;BME280;3239;48.714;9.472;2023-05-14T08:31:53;98293.56;;;14.91;100.00
6413;BME280;3239;48.714;9.472;2023-05-14T08:34:18;98274.09;;;15.34;100.00
6413;BME280;3239;48.714;9.472;2023-05-14T08:36:44;98270.84;;;16.37;100.00
6413;BME280;3239;48.714;9.472;2023-05-14T08:39:10;98236.53;;;17.21;100.00
6413;BME280;3239;48.714;9.472;2023-05-14T08:41:36;98207.84;;;16.84;100.00
6413;BME280;3239;48.714;9.472;2023-05-14T08:44:12;98212.75;;;17.18;100.00
6413;BME280;3239;48.714;9.472;2023-05-14T08:46:39;98195.94;;;16.99;100.00
6413;BME280;3239;48.714;9.472;2023-05-14T08:49:35;98194.13;;;17.35;100.00
6413;BME280;3239;48.714;9.472;2023-05-14T08:52:02;98190.28;;;17.31;100.00
6413;BME280;3239;48.714;9.472;2023-05-14T08:54:29;98187.28;;;17.53;100.00
6413;BME280;3239;48.714;9.472;2023-05-14T08:56:57;98175.31;;;17.85;100.00
6413;BME280;3239;48.714;9.472;2023-05-14T08:59:23;98166.44;;;17.52;100.00
6413;BME280;3239;48.714;9.472;2023-05-14T09:01:52;98170.59;;;17.61;100.00
6413;BME280;3239;48.714;9.472;2023-05-14T09:04:21;98171.53;;;17.05;100.00
6413;BME280;3239;48.714;9.472;2023-05-14T09:06:52;98163.94;;;16.64;100.00
6413;BME280;3239;48.714;9.472;2023-05-14T09:09:18;98161.69;;;16.70;100.00
6413;BME280;3239;48.714;9.472;2023-05-14T09:11:49;98164.91;;;16.83;100.00
6413;BME280;3239;48.714;9.472;2023-05-14T09:14:15;98161.44;;;17.34;100.00
6413;BME280;3239;48.714;9.472;2023-05-14T09:16:44;98143.06;;;18.33;100.00
6413;BME280;3239;48.714;9.472;2023-05-14T09:19:12;98127.03;;;18.14;100.00
6413;BME280;3239;48.714;9.472;2023-05-14T09:21:39;98121.84;;;18.28;100.00
6413;BME280;3239;48.714;9.472;2023-05-14T09:24:05;98112.72;;;17.31;100.00
6413;BME280;3239;48.714;9.472;2023-05-14T09:26:33;98114.31;;;17.41;100.00
6413;BME280;3239;48.714;9.472;2023-05-14T09:29:00;98115.66;;;16.99;100.00
6413;BME280;3239;48.714;9.472;2023-05-14T09:31:31;98122.19;;;17.11;100.00
6413;BME280;3239;48.714;9.472;2023-05-14T09:33:58;98118.94;;;17.56;100.00
6413;BME280;3239;48.714;9.472;2023-05-14T09:36:25;98122.03;;;17.09;100.00
6413;BME280;3239;48.714;9.472;2023-05-14T09:38:55;98125.16;;;16.71;100.00
6413;BME280;3239;48.714;9.472;2023-05-14T09:41:21;98126.56;;;16.80;100.00
6413;BME280;3239;48.714;9.472;2023-05-14T09:43:49;98117.91;;;16.76;100.00
6413;BME280;3239;48.714;9.472;2023-05-14T09:46:15;98119.31;;;16.84;100.00
6413;BME280;3239;48.714;9.472;2023-05-14T09:48:41;98115.00;;;16.74;100.00
6413;BME280;3239;48.714;9.472;2023-05-14T09:51:09;98124.78;;;16.50;100.00
6413;BME280;3239;48.714;9.472;2023-05-14T09:53:35;98148.66;;;16.63;100.00
6413;BME280;3239;48.714;9.472;2023-05-14T09:56:01;98155.00;;;16.97;100.00
6413;BME280;3239;48.714;9.472;2023-05-14T09:58:27;98150.53;;;17.36;100.00
6413;BME280;3239;48.714;9.472;2023-05-14T10:00:56;98123.66;;;17.46;100.00
6413;BME280;3239;48.714;9.472;2023-05-14T10:03:24;98116.66;;;17.11;100.00
6413;BME280;3239;48.714;9.472;2023-05-14T10:05:51;98095.72;;;17.51;100.00
6413;BME280;3239;48.714;9.472;2023-05-14T10:08:33;98107.63;;;17.88;100.00
6413;BME280;3239;48.714;9.472;2023-05-14T10:11:04;98096.63;;;18.07;100.00
6413;BME280;3239;48.714;9.472;2023-05-14T10:13:39;98074.16;;;17.76;100.00
6413;BME280;3239;48.714;9.472;2023-05-14T10:16:40;98084.47;;;17.66;100.00
6413;BME280;3239;48.714;9.472;2023-05-14T10:19:10;98069.75;;;17.73;100.00
6413;BME280;3239;48.714;9.472;2023-05-14T10:21:37;98064.69;;;17.79;100.00
6413;BME280;3239;48.714;9.472;2023-05-14T10:24:07;98069.91;;;17.49;100.00
6413;BME280;3239;48.714;9.472;2023-05-14T10:26:35;98060.72;;;17.73;100.00
6413;BME280;3239;48.714;9.472;2023-05-14T10:29:10;98054.13;;;17.95;100.00
6413;BME280;3239;48.714;9.472;2023-05-14T10:31:48;98057.06;;;18.33;100.00
6413;BME280;3239;48.714;9.472;2023-05-14T10:34:40;98043.84;;;18.69;100.00
6413;BME280;3239;48.714;9.472;2023-05-14T10:39:43;98020.94;;;18.88;100.00
6413;BME280;3239;48.714;9.472;2023-05-14T10:42:20;98018.03;;;18.76;100.00
6413;BME280;3239;48.714;9.472;2023-05-14T10:44:55;98007.94;;;19.00;100.00
6413;BME280;3239;48.714;9.472;2023-05-14T10:47:24;98014.34;;;19.50;100.00
6413;BME280;3239;48.714;9.472;2023-05-14T10:49:55;98003.66;;;19.96;100.00
6413;BME280;3239;48.714;9.472;2023-05-14T10:52:22;98001.63;;;19.37;100.00
6413;BME280;3239;48.714;9.472;2023-05-14T10:55:00;98010.09;;;19.49;100.00
6413;BME280;3239;48.714;9.472;2023-05-14T10:57:31;97993.59;;;19.41;100.00
6413;BME280;3239;48.714;9.472;2023-05-14T10:59:59;97995.66;;;19.31;100.00
6413;BME280;3239;48.714;9.472;2023-05-14T11:02:34;97985.72;;;19.09;100.00
6413;BME280;3239;48.714;9.472;2023-05-14T11:05:06;97991.84;;;18.89;100.00
6413;BME280;3239;48.714;9.472;2023-05-14T11:07:42;98000.03;;;18.58;100.00
6413;BME280;3239;48.714;9.472;2023-05-14T11:10:11;97998.00;;;18.87;100.00
6413;BME280;3239;48.714;9.472;2023-05-14T11:12:41;97999.00;;;18.63;100.00
6413;BME280;3239;48.714;9.472;2023-05-14T11:15:10;97985.44;;;18.77;100.00
6413;BME280;3239;48.714;9.472;2023-05-14T11:17:38;97990.56;;;19.28;100.00
6413;BME280;3239;48.714;9.472;2023-05-14T11:20:05;97980.88;;;19.38;100.00
6413;BME280;3239;48.714;9.472;2023-05-14T11:22:35;97973.47;;;19.22;100.00
6413;BME280;3239;48.714;9.472;2023-05-14T11:25:01;97967.59;;;18.70;100.00
6413;BME280;3239;48.714;9.472;2023-05-14T11:27:29;97975.03;;;19.25;100.00
6413;BME280;3239;48.714;9.472;2023-05-14T11:29:55;97974.91;;;19.04;100.00
6413;BME280;3239;48.714;9.472;2023-05-14T11:32:22;97960.91;;;18.73;100.00
6413;BME280;3239;48.714;9.472;2023-05-14T11:34:48;97955.63;;;18.49;100.00
6413;BME280;3239;48.714;9.472;2023-05-14T11:37:15;97958.81;;;18.36;100.00
6413;BME280;3239;48.714;9.472;2023-05-14T11:39:54;97954.13;;;18.29;100.00
6413;BME280;3239;48.714;9.472;2023-05-14T11:42:21;97960.28;;;19.13;100.00
6413;BME280;3239;48.714;9.472;2023-05-14T11:44:49;97949.44;;;19.36;100.00
6413;BME280;3239;48.714;9.472;2023-05-14T11:47:17;97938.03;;;19.41;100.00
6413;BME280;3239;48.714;9.472;2023-05-14T11:49:44;97941.59;;;19.04;100.00
6413;BME280;3239;48.714;9.472;2023-05-14T11:52:11;97943.63;;;19.32;100.00
6413;BME280;3239;48.714;9.472;2023-05-14T11:54:42;97943.31;;;19.28;100.00
6413;BME280;3239;48.714;9.472;2023-05-14T11:57:15;97934.09;;;19.75;100.00
6413;BME280;3239;48.714;9.472;2023-05-14T11:59:41;97937.22;;;19.60;100.00
6413;BME280;3239;48.714;9.472;2023-05-14T12:02:16;97945.56;;;19.60;100.00
6413;BME280;3239;48.714;9.472;2023-05-14T12:04:44;97929.22;;;19.85;100.00
6413;BME280;3239;48.714;9.472;2023-05-14T12:07:16;97931.84;;;19.52;100.00
6413;BME280;3239;48.714;9.472;2023-05-14T12:09:45;97928.94;;;20.11;100.00
6413;BME280;3239;48.714;9.472;2023-05-14T12:12:20;97920.00;;;20.55;100.00
6413;BME280;3239;48.714;9.472;2023-05-14T12:14:46;97917.94;;;20.34;100.00
6413;BME280;3239;48.714;9.472;2023-05-14T12:17:21;97914.72;;;19.86;100.00
6413;BME280;3239;48.714;9.472;2023-05-14T12:19:50;97907.91;;;20.08;100.00
6413;BME280;3239;48.714;9.472;2023-05-14T12:22:21;97909.06;;;20.68;100.00
6413;BME280;3239;48.714;9.472;2023-05-14T12:24:58;97907.16;;;20.50;100.00
6413;BME280;3239;48.714;9.472;2023-05-14T12:27:26;97907.22;;;20.61;100.00
6413;BME280;3239;48.714;9.472;2023-05-14T12:30:00;97896.69;;;19.66;100.00
6413;BME280;3239;48.714;9.472;2023-05-14T12:32:30;97897.28;;;19.55;100.00
6413;BME280;3239;48.714;9.472;2023-05-14T12:34:56;97890.34;;;19.45;100.00
6413;BME280;3239;48.714;9.472;2023-05-14T12:37:22;97895.69;;;20.34;100.00
6413;BME280;3239;48.714;9.472;2023-05-14T12:39:47;97881.22;;;20.68;100.00
6413;BME280;3239;48.714;9.472;2023-05-14T12:42:14;97873.03;;;20.28;100.00
6413;BME280;3239;48.714;9.472;2023-05-14T12:44:41;97884.81;;;20.59;100.00
6413;BME280;3239;48.714;9.472;2023-05-14T12:47:07;97867.75;;;20.32;100.00
6413;BME280;3239;48.714;9.472;2023-05-14T12:49:33;97870.97;;;20.82;100.00
6413;BME280;3239;48.714;9.472;2023-05-14T12:51:58;97870.44;;;21.18;100.00
6413;BME280;3239;48.714;9.472;2023-05-14T12:54:24;97876.19;;;21.55;100.00
6413;BME280;3239;48.714;9.472;2023-05-14T12:56:50;97861.38;;;21.29;100.00
6413;BME280;3239;48.714;9.472;2023-05-14T12:59:16;97856.78;;;20.46;100.00
6413;BME280;3239;48.714;9.472;2023-05-14T13:01:42;97856.63;;;20.65;100.00
6413;BME280;3239;48.714;9.472;2023-05-14T13:04:09;97851.09;;;20.44;100.00
6413;BME280;3239;48.714;9.472;2023-05-14T13:06:38;97850.91;;;20.51;100.00
6413;BME280;3239;48.714;9.472;2023-05-14T13:09:05;97845.47;;;20.32;100.00
6413;BME280;3239;48.714;9.472;2023-05-14T13:11:31;97839.88;;;20.53;100.00
6413;BME280;3239;48.714;9.472;2023-05-14T13:14:01;97842.28;;;20.47;100.00
6413;BME280;3239;48.714;9.472;2023-05-14T13:16:27;97842.72;;;20.76;100.00
6413;BME280;3239;48.714;9.472;2023-05-14T13:18:54;97836.66;;;21.01;100.00
6413;BME280;3239;48.714;9.472;2023-05-14T13:21:20;97832.50;;;20.90;100.00